createdAt,value
2017-04-11T00:00:57.567Z,735.85
2017-04-11T00:01:57.550Z,735.82
2017-04-11T00:02:57.533Z,735.78
2017-04-11T00:03:57.516Z,735.82
2017-04-11T00:04:57.499Z,735.72
2017-04-11T00:05:57.481Z,735.75
2017-04-11T00:06:57.464Z,735.74
2017-04-11T00:07:57.448Z,735.69
2017-04-11T00:08:57.432Z,735.72
2017-04-11T00:09:57.415Z,735.65
2017-04-11T00:10:57.399Z,735.69
2017-04-11T00:11:57.382Z,735.62
2017-04-11T00:12:57.367Z,735.73
2017-04-11T00:13:57.349Z,735.66
2017-04-11T00:14:57.334Z,735.63
2017-04-11T00:15:57.318Z,735.54
2017-04-11T00:16:57.301Z,735.53
2017-04-11T00:17:57.285Z,735.53
2017-04-11T00:18:57.270Z,735.55
2017-04-11T00:19:57.253Z,735.62
2017-04-11T00:20:57.236Z,735.54
2017-04-11T00:21:57.219Z,735.51
2017-04-11T00:22:57.204Z,735.37
2017-04-11T00:23:57.188Z,735.32
2017-04-11T00:24:57.171Z,735.36
2017-04-11T00:25:57.154Z,735.4
2017-04-11T00:26:57.137Z,735.41
2017-04-11T00:27:57.120Z,735.39
2017-04-11T00:28:57.105Z,735.33
2017-04-11T00:29:57.088Z,735.12
2017-04-11T00:30:57.072Z,735.36
2017-04-11T00:31:57.055Z,735.41
2017-04-11T00:32:57.039Z,735.46
2017-04-11T00:33:57.024Z,735.41
2017-04-11T00:34:57.006Z,735.36
2017-04-11T00:35:56.989Z,735.32
2017-04-11T00:36:56.972Z,735.3
2017-04-11T00:37:56.956Z,735.29
2017-04-11T00:38:56.938Z,735.25
2017-04-11T00:39:56.922Z,735.25
2017-04-11T00:40:56.906Z,735.25
2017-04-11T00:41:56.888Z,735.37
2017-04-11T00:42:56.870Z,735.4
2017-04-11T00:43:56.853Z,735.35
2017-04-11T00:44:56.837Z,735.48
2017-04-11T00:45:56.819Z,735.36
2017-04-11T00:46:56.803Z,735.42
2017-04-11T00:47:56.785Z,735.38
2017-04-11T00:48:56.770Z,735.34
2017-04-11T00:49:56.751Z,735.39
2017-04-11T00:50:56.736Z,735.38
2017-04-11T00:51:56.719Z,735.42
2017-04-11T00:52:56.703Z,735.36
2017-04-11T00:53:56.689Z,735.37
2017-04-11T00:54:56.669Z,735.44
2017-04-11T00:55:56.653Z,735.41
2017-04-11T00:56:56.635Z,735.3
2017-04-11T00:57:56.621Z,735.35
2017-04-11T00:58:56.602Z,735.37
2017-04-11T00:59:56.590Z,735.38
2017-04-11T01:00:56.566Z,735.32
2017-04-11T01:01:56.550Z,735.3
2017-04-11T01:02:56.533Z,735.15
2017-04-11T01:03:56.516Z,735.12
2017-04-11T01:04:56.499Z,735.22
2017-04-11T01:05:56.483Z,735.23
2017-04-11T01:06:56.468Z,735.22
2017-04-11T01:07:56.449Z,735.23
2017-04-11T01:08:56.432Z,735.3
2017-04-11T01:09:56.415Z,735.23
2017-04-11T01:10:56.401Z,735.23
2017-04-11T01:11:56.383Z,735.31
2017-04-11T01:12:56.366Z,735.27
2017-04-11T01:13:56.351Z,735.3
2017-04-11T01:14:56.334Z,735.29
2017-04-11T01:15:56.317Z,735.19
2017-04-11T01:16:56.302Z,735.19
2017-04-11T01:17:56.286Z,735.25
2017-04-11T01:18:56.270Z,735.24
2017-04-11T01:19:56.254Z,735.31
2017-04-11T01:20:56.237Z,735.38
2017-04-11T01:21:56.223Z,735.25
2017-04-11T01:22:56.206Z,735.24
2017-04-11T01:23:56.189Z,735.22
2017-04-11T01:24:56.174Z,735.19
2017-04-11T01:25:56.158Z,735.18
2017-04-11T01:26:56.140Z,735.18
2017-04-11T01:27:56.124Z,735.2
2017-04-11T01:28:56.108Z,735.06
2017-04-11T01:29:56.092Z,735.04
2017-04-11T01:30:56.076Z,735.03
2017-04-11T01:31:56.058Z,735.16
2017-04-11T01:32:56.043Z,735.09
2017-04-11T01:33:56.025Z,734.92
2017-04-11T01:34:56.010Z,734.91
2017-04-11T01:35:55.992Z,734.97
2017-04-11T01:36:55.976Z,735.19
2017-04-11T01:37:55.959Z,735.13
2017-04-11T01:38:55.943Z,735.01
2017-04-11T01:39:55.924Z,735.1
2017-04-11T01:40:55.908Z,735.23
2017-04-11T01:41:55.891Z,735.15
2017-04-11T01:42:55.873Z,735.17
2017-04-11T01:43:55.857Z,735.4
2017-04-11T01:44:55.839Z,735.1
2017-04-11T01:45:55.822Z,734.9
2017-04-11T01:46:55.807Z,734.98
2017-04-11T01:47:55.789Z,734.98
2017-04-11T01:48:55.771Z,734.82
2017-04-11T01:49:55.755Z,734.82
2017-04-11T01:50:55.741Z,734.77
2017-04-11T01:51:55.720Z,734.9
2017-04-11T01:52:55.743Z,734.9
2017-04-11T01:53:55.685Z,734.87
2017-04-11T01:54:55.669Z,734.9
2017-04-11T01:55:55.652Z,734.99
2017-04-11T01:56:55.637Z,735.11
2017-04-11T01:57:55.618Z,735.13
2017-04-11T01:58:55.599Z,734.93
2017-04-11T01:59:55.583Z,735.09
2017-04-11T02:00:55.566Z,735.14
2017-04-11T02:01:55.549Z,734.9
2017-04-11T02:02:55.531Z,734.97
2017-04-11T02:03:55.515Z,735
2017-04-11T02:04:55.498Z,734.9
2017-04-11T02:05:55.481Z,735.13
2017-04-11T02:06:55.463Z,735.2
2017-04-11T02:07:55.445Z,735.05
2017-04-11T02:08:55.429Z,735.11
2017-04-11T02:09:55.411Z,734.73
2017-04-11T02:10:55.393Z,734.85
2017-04-11T02:11:55.377Z,734.85
2017-04-11T02:12:55.389Z,734.67
2017-04-11T02:13:55.341Z,734.68
2017-04-11T02:14:55.325Z,734.53
2017-04-11T02:15:55.307Z,734.82
2017-04-11T02:16:55.291Z,734.73
2017-04-11T02:17:55.274Z,734.92
2017-04-11T02:18:55.259Z,734.53
2017-04-11T02:19:55.237Z,734.87
2017-04-11T02:20:55.220Z,734.83
2017-04-11T02:21:55.204Z,734.86
2017-04-11T02:22:55.187Z,734.97
2017-04-11T02:23:55.169Z,735.12
2017-04-11T02:24:55.152Z,734.91
2017-04-11T02:25:55.133Z,735.04
2017-04-11T02:26:55.117Z,735.05
2017-04-11T02:27:55.101Z,735.04
2017-04-11T02:28:55.081Z,735.07
2017-04-11T02:29:55.064Z,735.13
2017-04-11T02:30:55.047Z,735.05
2017-04-11T02:31:55.029Z,734.89
2017-04-11T02:32:55.010Z,734.91
2017-04-11T02:33:54.994Z,734.76
2017-04-11T02:34:54.975Z,734.95
2017-04-11T02:35:54.957Z,734.67
2017-04-11T02:36:54.939Z,734.79
2017-04-11T02:37:54.923Z,734.82
2017-04-11T02:38:54.904Z,734.92
2017-04-11T02:39:54.887Z,734.65
2017-04-11T02:40:54.869Z,734.9
2017-04-11T02:41:54.850Z,734.61
2017-04-11T02:42:54.833Z,734.95
2017-04-11T02:43:54.815Z,734.79
2017-04-11T02:44:54.798Z,735.02
2017-04-11T02:45:54.780Z,734.8
2017-04-11T02:46:54.761Z,734.55
2017-04-11T02:47:54.742Z,734.97
2017-04-11T02:48:54.724Z,734.82
2017-04-11T02:49:54.708Z,734.88
2017-04-11T02:50:54.689Z,734.93
2017-04-11T02:51:54.670Z,734.73
2017-04-11T02:52:54.654Z,734.88
2017-04-11T02:53:54.635Z,734.93
2017-04-11T02:54:54.619Z,734.9
2017-04-11T02:55:54.600Z,734.92
2017-04-11T02:56:54.584Z,734.83
2017-04-11T02:57:54.565Z,734.82
2017-04-11T02:58:54.547Z,734.87
2017-04-11T02:59:54.531Z,734.87
2017-04-11T03:00:54.513Z,734.83
2017-04-11T03:01:54.495Z,734.77
2017-04-11T03:02:54.479Z,734.85
2017-04-11T03:03:54.461Z,734.78
2017-04-11T03:04:54.444Z,734.79
2017-04-11T03:05:54.426Z,734.76
2017-04-11T03:06:54.409Z,734.79
2017-04-11T03:07:54.392Z,734.81
2017-04-11T03:08:54.375Z,734.78
2017-04-11T03:09:54.356Z,734.68
2017-04-11T03:10:54.340Z,734.84
2017-04-11T03:11:54.323Z,734.87
2017-04-11T03:12:54.306Z,734.74
2017-04-11T03:13:54.289Z,734.71
2017-04-11T03:14:54.271Z,734.74
2017-04-11T03:15:54.254Z,734.73
2017-04-11T03:16:54.236Z,734.9
2017-04-11T03:17:54.219Z,734.76
2017-04-11T03:18:54.202Z,734.76
2017-04-11T03:19:54.183Z,734.61
2017-04-11T03:20:54.167Z,734.55
2017-04-11T03:21:54.150Z,734.65
2017-04-11T03:22:54.133Z,734.74
2017-04-11T03:23:54.114Z,734.77
2017-04-11T03:24:54.097Z,734.78
2017-04-11T03:25:54.081Z,734.75
2017-04-11T03:26:54.062Z,734.91
2017-04-11T03:27:54.047Z,734.9
2017-04-11T03:28:54.029Z,734.92
2017-04-11T03:29:54.013Z,734.97
2017-04-11T03:30:53.999Z,734.83
2017-04-11T03:31:53.979Z,734.82
2017-04-11T03:32:53.962Z,734.68
2017-04-11T03:33:53.945Z,734.71
2017-04-11T03:34:53.929Z,734.81
2017-04-11T03:35:53.912Z,734.85
2017-04-11T03:36:53.895Z,734.72
2017-04-11T03:37:53.878Z,734.61
2017-04-11T03:38:53.861Z,734.59
2017-04-11T03:39:53.843Z,734.51
2017-04-11T03:40:53.827Z,734.56
2017-04-11T03:41:53.810Z,734.76
2017-04-11T03:42:53.792Z,734.54
2017-04-11T03:43:53.776Z,734.64
2017-04-11T03:44:53.758Z,734.76
2017-04-11T03:45:53.740Z,734.77
2017-04-11T03:46:53.723Z,734.8
2017-04-11T03:47:53.707Z,734.67
2017-04-11T03:48:53.699Z,734.62
2017-04-11T03:49:53.674Z,734.68
2017-04-11T03:50:53.652Z,734.62
2017-04-11T03:51:53.634Z,734.78
2017-04-11T03:52:53.616Z,734.74
2017-04-11T03:53:53.597Z,734.67
2017-04-11T03:54:53.579Z,734.83
2017-04-11T03:55:53.562Z,734.81
2017-04-11T03:56:53.543Z,734.74
2017-04-11T03:57:53.525Z,734.74
2017-04-11T03:58:53.508Z,734.6
2017-04-11T03:59:53.490Z,734.68
2017-04-11T04:00:53.471Z,734.72
2017-04-11T04:01:53.455Z,734.77
2017-04-11T04:02:53.438Z,734.81
2017-04-11T04:03:53.418Z,734.73
2017-04-11T04:04:53.402Z,734.89
2017-04-11T04:05:53.383Z,734.6
2017-04-11T04:06:53.366Z,734.73
2017-04-11T04:07:53.348Z,734.73
2017-04-11T04:08:53.330Z,734.63
2017-04-11T04:09:53.311Z,734.71
2017-04-11T04:10:53.292Z,734.54
2017-04-11T04:11:53.276Z,734.56
2017-04-11T04:12:53.300Z,734.67
2017-04-11T04:13:53.242Z,734.59
2017-04-11T04:14:53.222Z,734.73
2017-04-11T04:15:53.204Z,734.76
2017-04-11T04:16:53.187Z,734.76
2017-04-11T04:17:53.168Z,734.49
2017-04-11T04:18:53.150Z,734.65
2017-04-11T04:19:53.132Z,734.67
2017-04-11T04:20:53.116Z,734.78
2017-04-11T04:21:53.098Z,734.59
2017-04-11T04:22:53.079Z,734.78
2017-04-11T04:23:53.062Z,734.66
2017-04-11T04:24:53.044Z,734.54
2017-04-11T04:25:53.024Z,734.45
2017-04-11T04:26:53.006Z,735.03
2017-04-11T04:27:52.988Z,734.68
2017-04-11T04:28:52.971Z,734.84
2017-04-11T04:29:52.953Z,734.58
2017-04-11T04:30:52.935Z,734.53
2017-04-11T04:31:52.917Z,734.5
2017-04-11T04:32:52.898Z,734.17
2017-04-11T04:33:52.880Z,734.48
2017-04-11T04:34:52.862Z,734.28
2017-04-11T04:35:52.843Z,734.41
2017-04-11T04:36:52.824Z,734.6
2017-04-11T04:37:52.806Z,734.63
2017-04-11T04:38:52.789Z,734.46
2017-04-11T04:39:52.770Z,734.53
2017-04-11T04:40:52.752Z,734.54
2017-04-11T04:41:52.734Z,734.86
2017-04-11T04:42:52.716Z,734.77
2017-04-11T04:43:52.696Z,734.75
2017-04-11T04:44:52.678Z,734.66
2017-04-11T04:45:52.660Z,734.66
2017-04-11T04:46:52.643Z,734.85
2017-04-11T04:47:52.624Z,734.88
2017-04-11T04:48:52.606Z,734.74
2017-04-11T04:49:52.587Z,734.77
2017-04-11T04:50:52.570Z,734.82
2017-04-11T04:51:52.551Z,734.76
2017-04-11T04:52:52.532Z,734.68
2017-04-11T04:53:52.514Z,734.87
2017-04-11T04:54:52.496Z,734.72
2017-04-11T04:55:52.478Z,734.58
2017-04-11T04:56:52.460Z,734.68
2017-04-11T04:57:52.443Z,734.78
2017-04-11T04:58:52.424Z,734.67
2017-04-11T04:59:52.406Z,734.69
2017-04-11T05:00:52.388Z,734.65
2017-04-11T05:01:52.369Z,734.58
2017-04-11T05:02:52.392Z,734.62
2017-04-11T05:03:52.332Z,734.63
2017-04-11T05:04:52.316Z,734.68
2017-04-11T05:05:52.296Z,734.57
2017-04-11T05:06:52.278Z,734.56
2017-04-11T05:07:52.265Z,734.66
2017-04-11T05:08:52.245Z,734.56
2017-04-11T05:09:52.225Z,734.54
2017-04-11T05:10:52.207Z,734.77
2017-04-11T05:11:52.189Z,734.56
2017-04-11T05:12:52.170Z,734.63
2017-04-11T05:13:52.153Z,734.3
2017-04-11T05:14:52.134Z,734.54
2017-04-11T05:15:52.118Z,734.52
2017-04-11T05:16:52.099Z,734.61
2017-04-11T05:17:52.081Z,734.64
2017-04-11T05:18:52.064Z,734.46
2017-04-11T05:19:52.047Z,734.66
2017-04-11T05:20:52.028Z,734.86
2017-04-11T05:21:52.010Z,734.92
2017-04-11T05:22:51.993Z,734.77
2017-04-11T05:23:51.975Z,734.66
2017-04-11T05:24:51.957Z,734.81
2017-04-11T05:25:51.938Z,734.84
2017-04-11T05:26:51.921Z,734.71
2017-04-11T05:27:51.902Z,734.93
2017-04-11T05:28:51.885Z,734.73
2017-04-11T05:29:51.867Z,734.83
2017-04-11T05:30:51.848Z,735.06
2017-04-11T05:31:51.831Z,734.94
2017-04-11T05:32:51.813Z,734.78
2017-04-11T05:33:51.794Z,734.65
2017-04-11T05:34:51.777Z,734.81
2017-04-11T05:35:51.759Z,734.82
2017-04-11T05:36:51.740Z,734.71
2017-04-11T05:37:51.721Z,734.89
2017-04-11T05:38:51.702Z,734.98
2017-04-11T05:39:51.685Z,734.83
2017-04-11T05:40:51.666Z,734.85
2017-04-11T05:41:51.648Z,734.97
2017-04-11T05:42:51.631Z,734.76
2017-04-11T05:43:51.613Z,734.76
2017-04-11T05:44:51.594Z,735.05
2017-04-11T05:45:51.576Z,734.96
2017-04-11T05:46:51.556Z,734.83
2017-04-11T05:47:51.540Z,734.78
2017-04-11T05:48:51.521Z,734.91
2017-04-11T05:49:51.503Z,734.62
2017-04-11T05:50:51.484Z,734.84
2017-04-11T05:51:51.466Z,734.94
2017-04-11T05:52:51.448Z,734.56
2017-04-11T05:53:51.428Z,734.82
2017-04-11T05:54:51.411Z,734.8
2017-04-11T05:55:51.392Z,734.44
2017-04-11T05:56:51.373Z,734.77
2017-04-11T05:57:51.356Z,734.85
2017-04-11T05:58:51.343Z,735.14
2017-04-11T05:59:51.319Z,734.89
2017-04-11T06:00:51.299Z,734.73
2017-04-11T06:01:51.280Z,734.93
2017-04-11T06:02:51.263Z,735
2017-04-11T06:03:51.245Z,734.94
2017-04-11T06:04:51.227Z,734.72
2017-04-11T06:05:51.210Z,734.87
2017-04-11T06:06:51.191Z,734.97
2017-04-11T06:07:51.171Z,735.13
2017-04-11T06:08:51.153Z,734.96
2017-04-11T06:09:51.136Z,734.94
2017-04-11T06:10:51.117Z,734.89
2017-04-11T06:11:51.098Z,735.06
2017-04-11T06:12:51.081Z,735.25
2017-04-11T06:13:51.062Z,735.2
2017-04-11T06:14:51.042Z,735.05
2017-04-11T06:15:51.024Z,734.87
2017-04-11T06:16:51.005Z,735.01
2017-04-11T06:17:50.988Z,734.62
2017-04-11T06:18:50.969Z,734.74
2017-04-11T06:19:50.951Z,734.82
2017-04-11T06:20:50.931Z,734.97
2017-04-11T06:21:50.913Z,735.02
2017-04-11T06:22:50.893Z,734.74
2017-04-11T06:23:50.876Z,734.83
2017-04-11T06:24:50.858Z,734.9
2017-04-11T06:25:50.839Z,735.15
2017-04-11T06:26:50.820Z,734.89
2017-04-11T06:27:50.802Z,734.56
2017-04-11T06:28:50.783Z,734.79
2017-04-11T06:29:50.763Z,734.57
2017-04-11T06:30:50.745Z,734.85
2017-04-11T06:31:50.726Z,734.87
2017-04-11T06:32:50.709Z,734.91
2017-04-11T06:33:50.690Z,734.98
2017-04-11T06:34:50.671Z,734.96
2017-04-11T06:35:50.653Z,734.89
2017-04-11T06:36:50.635Z,734.64
2017-04-11T06:37:50.615Z,734.75
2017-04-11T06:38:50.597Z,734.83
2017-04-11T06:39:50.579Z,734.9
2017-04-11T06:40:50.560Z,734.84
2017-04-11T06:41:50.542Z,734.95
2017-04-11T06:42:50.526Z,734.97
2017-04-11T06:43:50.507Z,734.99
2017-04-11T06:44:50.487Z,734.97
2017-04-11T06:45:50.469Z,734.84
2017-04-11T06:46:50.451Z,734.77
2017-04-11T06:47:50.432Z,734.88
2017-04-11T06:48:50.414Z,734.92
2017-04-11T06:49:50.396Z,734.92
2017-04-11T06:50:50.379Z,734.83
2017-04-11T06:51:50.358Z,735.1
2017-04-11T06:52:50.340Z,734.99
2017-04-11T06:53:50.322Z,734.98
2017-04-11T06:54:50.304Z,735.08
2017-04-11T06:55:50.285Z,734.95
2017-04-11T06:56:50.266Z,734.59
2017-04-11T06:57:50.247Z,735
2017-04-11T06:58:50.228Z,734.87
2017-04-11T06:59:50.212Z,734.82
2017-04-11T07:00:50.193Z,734.93
2017-04-11T07:01:50.175Z,734.94
2017-04-11T07:02:50.154Z,734.87
2017-04-11T07:03:50.136Z,734.87
2017-04-11T07:04:50.118Z,734.88
2017-04-11T07:05:50.100Z,735.03
2017-04-11T07:06:50.081Z,735.15
2017-04-11T07:07:50.064Z,735.15
2017-04-11T07:08:50.046Z,735.09
2017-04-11T07:09:50.025Z,735.01
2017-04-11T07:10:50.008Z,734.96
2017-04-11T07:11:49.990Z,735.2
2017-04-11T07:12:49.972Z,735.05
2017-04-11T07:13:49.952Z,735.03
2017-04-11T07:14:49.934Z,735.04
2017-04-11T07:15:49.917Z,735.02
2017-04-11T07:16:49.898Z,735.08
2017-04-11T07:17:49.878Z,735.04
2017-04-11T07:18:49.899Z,735.14
2017-04-11T07:19:49.842Z,735.23
2017-04-11T07:20:49.823Z,734.87
2017-04-11T07:21:49.805Z,735.04
2017-04-11T07:22:49.786Z,735.12
2017-04-11T07:23:49.769Z,734.99
2017-04-11T07:24:49.750Z,735.05
2017-04-11T07:25:49.731Z,735.14
2017-04-11T07:26:49.713Z,735.07
2017-04-11T07:27:49.695Z,735.07
2017-04-11T07:28:49.674Z,735.07
2017-04-11T07:29:49.655Z,735.17
2017-04-11T07:30:49.639Z,735.16
2017-04-11T07:31:49.619Z,735.3
2017-04-11T07:32:49.599Z,735.09
2017-04-11T07:33:49.582Z,735.28
2017-04-11T07:34:49.562Z,735.17
2017-04-11T07:35:49.544Z,735.2
2017-04-11T07:36:49.526Z,735.21
2017-04-11T07:37:49.508Z,735.21
2017-04-11T07:38:49.489Z,735.49
2017-04-11T07:39:49.470Z,735.35
2017-04-11T07:40:49.456Z,735.03
2017-04-11T07:41:49.432Z,735.31
2017-04-11T07:42:49.415Z,735.19
2017-04-11T07:43:49.395Z,735.01
2017-04-11T07:44:49.377Z,735.33
2017-04-11T07:45:49.359Z,735.25
2017-04-11T07:46:49.339Z,735.33
2017-04-11T07:47:49.321Z,735.15
2017-04-11T07:48:49.303Z,734.98
2017-04-11T07:49:49.282Z,735.37
2017-04-11T07:50:49.264Z,735.25
2017-04-11T07:51:49.245Z,735.08
2017-04-11T07:52:49.227Z,735.39
2017-04-11T07:53:49.207Z,735.12
2017-04-11T07:54:49.187Z,735.2
2017-04-11T07:55:49.170Z,735.25
2017-04-11T07:56:49.152Z,735.22
2017-04-11T07:57:49.132Z,735.47
2017-04-11T07:58:49.114Z,735.28
2017-04-11T07:59:49.094Z,735.23
2017-04-11T08:00:49.075Z,735.3
2017-04-11T08:01:49.056Z,735.19
2017-04-11T08:02:49.037Z,735.22
2017-04-11T08:03:49.018Z,735.23
2017-04-11T08:04:48.998Z,735.48
2017-04-11T08:05:48.980Z,735.27
2017-04-11T08:06:48.961Z,735.25
2017-04-11T08:07:48.943Z,735.36
2017-04-11T08:08:48.923Z,735.4
2017-04-11T08:09:48.904Z,735.58
2017-04-11T08:10:48.886Z,735.65
2017-04-11T08:11:48.866Z,735.75
2017-04-11T08:12:48.850Z,735.59
2017-04-11T08:13:48.829Z,735.66
2017-04-11T08:14:48.811Z,735.44
2017-04-11T08:15:48.794Z,735.55
2017-04-11T08:16:48.775Z,735.79
2017-04-11T08:17:48.756Z,735.57
2017-04-11T08:18:48.739Z,735.63
2017-04-11T08:19:48.719Z,735.58
2017-04-11T08:20:48.702Z,735.6
2017-04-11T08:21:48.683Z,735.43
2017-04-11T08:22:48.664Z,735.4
2017-04-11T08:23:48.650Z,735.45
2017-04-11T08:24:48.626Z,735.52
2017-04-11T08:25:48.608Z,735.5
2017-04-11T08:26:48.590Z,735.47
2017-04-11T08:27:48.571Z,735.85
2017-04-11T08:28:48.552Z,735.46
2017-04-11T08:29:48.534Z,735.75
2017-04-11T08:30:48.513Z,735.46
2017-04-11T08:31:48.494Z,735.51
2017-04-11T08:32:48.477Z,735.69
2017-04-11T08:33:48.460Z,735.7
2017-04-11T08:34:48.439Z,735.68
2017-04-11T08:35:48.420Z,735.53
2017-04-11T08:36:48.401Z,735.79
2017-04-11T08:37:48.386Z,735.68
2017-04-11T08:38:48.429Z,735.74
2017-04-11T08:39:48.346Z,735.84
2017-04-11T08:40:48.327Z,735.82
2017-04-11T08:41:48.307Z,735.7
2017-04-11T08:42:48.289Z,735.6
2017-04-11T08:43:48.271Z,735.59
2017-04-11T08:44:48.251Z,735.62
2017-04-11T08:45:48.233Z,735.74
2017-04-11T08:46:48.214Z,735.68
2017-04-11T08:47:48.198Z,735.61
2017-04-11T08:48:48.177Z,735.5
2017-04-11T08:49:48.158Z,735.62
2017-04-11T08:50:48.141Z,735.75
2017-04-11T08:51:48.121Z,735.81
2017-04-11T08:52:48.103Z,735.96
2017-04-11T08:53:48.085Z,735.76
2017-04-11T08:54:48.067Z,735.79
2017-04-11T08:55:48.048Z,735.81
2017-04-11T08:56:48.029Z,735.97
2017-04-11T08:57:48.011Z,736.02
2017-04-11T08:58:47.994Z,735.88
2017-04-11T08:59:47.975Z,735.77
2017-04-11T09:00:47.958Z,735.72
2017-04-11T09:01:47.939Z,735.9
2017-04-11T09:02:47.920Z,735.77
2017-04-11T09:03:47.901Z,735.86
2017-04-11T09:04:47.884Z,735.92
2017-04-11T09:05:47.865Z,735.95
2017-04-11T09:06:47.845Z,735.99
2017-04-11T09:07:47.827Z,736.14
2017-04-11T09:08:47.809Z,736.11
2017-04-11T09:09:47.791Z,735.9
2017-04-11T09:10:47.774Z,736.21
2017-04-11T09:11:47.752Z,736.12
2017-04-11T09:12:47.736Z,735.83
2017-04-11T09:13:47.716Z,735.97
2017-04-11T09:14:47.697Z,735.97
2017-04-11T09:15:47.678Z,736.04
2017-04-11T09:16:47.660Z,736.06
2017-04-11T09:17:47.641Z,736
2017-04-11T09:18:47.622Z,736.34
2017-04-11T09:19:47.604Z,736.16
2017-04-11T09:20:47.584Z,736.09
2017-04-11T09:21:47.565Z,736.13
2017-04-11T09:22:47.547Z,736.23
2017-04-11T09:23:47.529Z,736.23
2017-04-11T09:24:47.509Z,736.19
2017-04-11T09:25:47.491Z,736.19
2017-04-11T09:26:47.476Z,736.18
2017-04-11T09:27:47.452Z,736.05
2017-04-11T09:28:47.433Z,735.94
2017-04-11T09:29:47.415Z,736.09
2017-04-11T09:30:47.396Z,736.31
2017-04-11T09:31:47.378Z,736
2017-04-11T09:32:47.360Z,735.85
2017-04-11T09:33:47.341Z,735.97
2017-04-11T09:34:47.320Z,736.22
2017-04-11T09:35:47.303Z,736.3
2017-04-11T09:36:47.285Z,736.27
2017-04-11T09:37:47.267Z,736.29
2017-04-11T09:38:47.249Z,736.27
2017-04-11T09:39:47.228Z,736.26
2017-04-11T09:40:47.210Z,736.1
2017-04-11T09:41:47.191Z,736
2017-04-11T09:42:47.174Z,736.22
2017-04-11T09:43:47.154Z,736.15
2017-04-11T09:44:47.136Z,736.14
2017-04-11T09:45:47.119Z,736.08
2017-04-11T09:46:47.098Z,735.92
2017-04-11T09:47:47.083Z,736.22
2017-04-11T09:48:47.062Z,736.13
2017-04-11T09:49:47.049Z,736.15
2017-04-11T09:50:47.026Z,736.29
2017-04-11T09:51:47.007Z,736.33
2017-04-11T09:52:46.989Z,736.15
2017-04-11T09:53:46.973Z,736.16
2017-04-11T09:54:46.952Z,736.19
2017-04-11T09:55:46.936Z,736.19
2017-04-11T09:56:46.917Z,736.18
2017-04-11T09:57:46.898Z,736.31
2017-04-11T09:58:46.882Z,736.43
2017-04-11T09:59:46.863Z,736.33
2017-04-11T10:00:46.846Z,736.01
2017-04-11T10:01:46.826Z,736.12
2017-04-11T10:02:46.809Z,735.91
2017-04-11T10:03:46.792Z,736.2
2017-04-11T10:04:46.772Z,736.32
2017-04-11T10:05:46.753Z,736.45
2017-04-11T10:06:46.735Z,736.4
2017-04-11T10:07:46.718Z,736.39
2017-04-11T10:08:46.699Z,736.54
2017-04-11T10:09:46.680Z,736.59
2017-04-11T10:10:46.663Z,736.6
2017-04-11T10:11:46.645Z,736.43
2017-04-11T10:12:46.625Z,736.41
2017-04-11T10:13:46.609Z,736.23
2017-04-11T10:14:46.590Z,736.3
2017-04-11T10:15:46.573Z,736.41
2017-04-11T10:16:46.553Z,736.31
2017-04-11T10:17:46.536Z,736.54
2017-04-11T10:18:46.518Z,736.42
2017-04-11T10:19:46.498Z,736.4
2017-04-11T10:20:46.482Z,736.43
2017-04-11T10:21:46.463Z,736.26
2017-04-11T10:22:46.445Z,736.32
2017-04-11T10:23:46.427Z,736.37
2017-04-11T10:24:46.409Z,736.47
2017-04-11T10:25:46.392Z,736.33
2017-04-11T10:26:46.373Z,736.44
2017-04-11T10:27:46.354Z,736.28
2017-04-11T10:28:46.337Z,736.33
2017-04-11T10:29:46.317Z,736.29
2017-04-11T10:30:46.297Z,736.28
2017-04-11T10:31:46.279Z,736.13
2017-04-11T10:32:46.262Z,736.02
2017-04-11T10:33:46.245Z,736.25
2017-04-11T10:34:46.224Z,736.13
2017-04-11T10:35:46.206Z,736.33
2017-04-11T10:36:46.186Z,736.26
2017-04-11T10:37:46.169Z,736.4
2017-04-11T10:38:46.151Z,736.31
2017-04-11T10:39:46.130Z,736.34
2017-04-11T10:40:46.114Z,736.25
2017-04-11T10:41:46.095Z,736.36
2017-04-11T10:42:46.080Z,736.39
2017-04-11T10:43:46.059Z,736.36
2017-04-11T10:44:46.039Z,736.12
2017-04-11T10:45:46.020Z,736.43
2017-04-11T10:46:46.003Z,736.2
2017-04-11T10:47:45.984Z,736.39
2017-04-11T10:48:45.968Z,736.29
2017-04-11T10:49:45.949Z,736.48
2017-04-11T10:50:45.930Z,736.39
2017-04-11T10:51:45.913Z,736.48
2017-04-11T10:52:45.893Z,736.46
2017-04-11T10:53:45.876Z,736.44
2017-04-11T10:54:45.857Z,736.45
2017-04-11T10:55:45.840Z,736.66
2017-04-11T10:56:45.822Z,736.58
2017-04-11T10:57:45.802Z,736.63
2017-04-11T10:58:45.786Z,736.6
2017-04-11T10:59:45.768Z,736.55
2017-04-11T11:00:45.750Z,736.65
2017-04-11T11:01:45.731Z,736.65
2017-04-11T11:02:45.713Z,736.56
2017-04-11T11:03:45.694Z,736.54
2017-04-11T11:04:45.678Z,736.59
2017-04-11T11:05:45.660Z,736.42
2017-04-11T11:06:45.641Z,736.57
2017-04-11T11:07:45.622Z,736.6
2017-04-11T11:08:45.605Z,736.59
2017-04-11T11:09:45.589Z,736.58
2017-04-11T11:10:45.569Z,736.58
2017-04-11T11:11:45.553Z,736.54
2017-04-11T11:12:45.537Z,736.3
2017-04-11T11:13:45.518Z,736.43
2017-04-11T11:14:45.500Z,736.55
2017-04-11T11:15:45.484Z,736.42
2017-04-11T11:16:45.468Z,736.49
2017-04-11T11:17:45.450Z,736.51
2017-04-11T11:18:45.431Z,736.44
2017-04-11T11:19:45.413Z,736.4
2017-04-11T11:20:45.395Z,736.44
2017-04-11T11:21:45.377Z,736.48
2017-04-11T11:22:45.361Z,736.4
2017-04-11T11:23:45.343Z,736.49
2017-04-11T11:24:45.325Z,736.44
2017-04-11T11:25:45.305Z,736.38
2017-04-11T11:26:45.289Z,736.45
2017-04-11T11:27:45.271Z,736.4
2017-04-11T11:28:45.255Z,736.3
2017-04-11T11:29:45.236Z,736.46
2017-04-11T11:30:45.218Z,736.43
2017-04-11T11:31:45.202Z,736.45
2017-04-11T11:32:45.182Z,736.35
2017-04-11T11:33:45.166Z,736.43
2017-04-11T11:34:45.147Z,736.32
2017-04-11T11:35:45.129Z,736.37
2017-04-11T11:36:45.111Z,736.41
2017-04-11T11:37:45.093Z,736.34
2017-04-11T11:38:45.074Z,736.42
2017-04-11T11:39:45.055Z,736.39
2017-04-11T11:40:45.037Z,736.55
2017-04-11T11:41:45.019Z,736.57
2017-04-11T11:42:45.002Z,736.5
2017-04-11T11:43:44.982Z,736.56
2017-04-11T11:44:44.965Z,736.56
2017-04-11T11:45:44.949Z,736.46
2017-04-11T11:46:44.930Z,736.39
2017-04-11T11:47:44.914Z,736.49
2017-04-11T11:48:44.896Z,736.41
2017-04-11T11:49:44.879Z,736.43
2017-04-11T11:50:44.863Z,736.45
2017-04-11T11:51:44.844Z,736.31
2017-04-11T11:52:44.929Z,736.38
2017-04-11T11:53:44.811Z,736.41
2017-04-11T11:54:44.794Z,736.48
2017-04-11T11:55:44.776Z,736.51
2017-04-11T11:56:44.760Z,736.54
2017-04-11T11:57:44.741Z,736.57
2017-04-11T11:58:44.723Z,736.47
2017-04-11T11:59:44.707Z,736.47
2017-04-11T12:00:44.692Z,736.46
2017-04-11T12:01:44.675Z,736.42
2017-04-11T12:02:44.657Z,736.46
2017-04-11T12:03:44.641Z,736.53
2017-04-11T12:04:44.624Z,736.48
2017-04-11T12:05:44.606Z,736.52
2017-04-11T12:06:44.591Z,736.48
2017-04-11T12:07:44.575Z,736.43
2017-04-11T12:08:44.559Z,736.46
2017-04-11T12:09:44.543Z,736.44
2017-04-11T12:10:44.527Z,736.49
2017-04-11T12:11:44.511Z,736.45
2017-04-11T12:12:44.494Z,736.48
2017-04-11T12:13:44.477Z,736.38
2017-04-11T12:14:44.461Z,736.33
2017-04-11T12:15:44.446Z,736.33
2017-04-11T12:16:44.428Z,736.37
2017-04-11T12:17:44.413Z,736.22
2017-04-11T12:18:44.397Z,736.42
2017-04-11T12:19:44.380Z,736.44
2017-04-11T12:20:44.361Z,736.38
2017-04-11T12:21:44.347Z,736.36
2017-04-11T12:22:44.330Z,736.32
2017-04-11T12:23:44.313Z,736.41
2017-04-11T12:24:44.297Z,736.41
2017-04-11T12:25:44.280Z,736.35
2017-04-11T12:26:44.263Z,736.35
2017-04-11T12:27:44.247Z,736.39
2017-04-11T12:28:44.230Z,736.52
2017-04-11T12:29:44.216Z,736.39
2017-04-11T12:30:44.197Z,736.41
2017-04-11T12:31:44.177Z,736.49